createdAt,value
2023-04-24T00:00:02.687Z,995.2
2023-04-24T00:15:02.913Z,995.1
2023-04-24T00:30:02.370Z,995.0
2023-04-24T00:45:02.803Z,995.0
2023-04-24T01:00:03.268Z,994.9
2023-04-24T01:15:02.697Z,994.8
2023-04-24T01:30:03.132Z,994.8
2023-04-24T01:45:02.741Z,994.7
2023-04-24T02:00:02.992Z,994.8
2023-04-24T02:15:02.458Z,994.8
2023-04-24T02:30:02.885Z,994.7
2023-04-24T02:45:02.302Z,994.6
2023-04-24T03:00:02.775Z,994.7
2023-04-24T03:15:03.223Z,994.6
2023-04-24T03:30:02.735Z,994.7
2023-04-24T03:45:03.102Z,994.8
2023-04-24T04:00:02.728Z,994.9
2023-04-24T04:15:02.965Z,995.1
2023-04-24T04:30:02.436Z,995.0
2023-04-24T04:45:02.866Z,995.4
2023-04-24T05:00:02.315Z,995.4
2023-04-24T05:15:02.740Z,995.3
2023-04-24T05:30:03.186Z,995.4
2023-04-24T05:45:02.749Z,995.5
2023-04-24T06:00:03.095Z,995.4
2023-04-24T06:15:02.732Z,995.5
2023-04-24T06:30:02.947Z,995.5
2023-04-24T06:45:02.342Z,995.4
2023-04-24T07:00:02.984Z,995.6
2023-04-24T07:15:02.217Z,995.6
2023-04-24T07:30:02.757Z,995.7
2023-04-24T07:45:03.162Z,995.9
2023-04-24T08:00:02.766Z,995.9
2023-04-24T08:15:03.009Z,996.0
2023-04-24T08:30:02.427Z,996.2
2023-04-24T08:45:02.879Z,996.4
2023-04-24T09:00:02.323Z,996.3
2023-04-24T09:15:02.781Z,996.5
2023-04-24T09:30:02.190Z,996.5
2023-04-24T10:00:02.061Z,996.8
2023-04-24T10:15:02.517Z,996.8
2023-04-24T10:30:02.959Z,997.0
2023-04-24T10:45:02.382Z,997.4
2023-04-24T11:00:03.109Z,997.5
2023-04-24T11:15:03.665Z,997.8
2023-04-24T11:30:02.982Z,998.2
2023-04-24T11:45:03.464Z,998.3
2023-04-24T12:00:02.800Z,998.7
2023-04-24T12:15:02.336Z,999.1
2023-04-24T12:30:03.400Z,999.3
2023-04-24T12:45:02.840Z,999.8
2023-04-24T13:00:02.278Z,999.8
2023-04-24T13:15:02.834Z,1000.2
2023-04-24T13:30:02.293Z,1000.1
2023-04-24T13:45:11.081Z,1000.3
2023-04-24T14:00:03.027Z,1000.3
2023-04-24T14:15:02.490Z,1000.4
2023-04-24T14:30:03.045Z,1000.5
2023-04-24T14:45:02.306Z,1000.7
2023-04-24T15:00:02.857Z,1001.0
2023-04-24T15:15:02.230Z,1001.1
2023-04-24T15:30:02.838Z,1001.2
2023-04-24T15:45:02.084Z,1001.3
2023-04-24T16:00:02.545Z,1001.4
2023-04-24T16:15:02.978Z,1001.6
2023-04-24T16:30:02.426Z,1001.7
2023-04-24T16:45:02.864Z,1001.7
2023-04-24T17:00:02.260Z,1001.8
2023-04-24T17:15:02.883Z,1001.8
2023-04-24T17:30:02.162Z,1001.9
2023-04-24T17:45:02.610Z,1001.8
2023-04-24T18:00:03.042Z,1001.9
2023-04-24T18:15:13.607Z,1002.0
2023-04-24T18:45:02.332Z,1002.3
2023-04-24T19:00:02.886Z,1002.3
2023-04-24T19:15:02.208Z,1002.6
2023-04-24T19:30:02.891Z,1002.7
2023-04-24T19:45:02.085Z,1002.7
2023-04-24T20:00:02.548Z,1002.7
2023-04-24T20:15:02.960Z,1002.7
2023-04-24T20:30:02.434Z,1002.7
2023-04-24T20:45:02.926Z,1002.7
2023-04-24T21:00:02.268Z,1002.8
2023-04-24T21:15:02.932Z,1003.0
2023-04-24T21:30:02.181Z,1002.8
2023-04-24T21:45:02.652Z,1002.9
2023-04-24T22:00:03.071Z,1002.7
2023-04-24T22:30:02.944Z,1002.8
2023-04-24T22:45:02.322Z,1002.8
2023-04-24T23:00:02.918Z,1002.8
2023-04-24T23:15:02.198Z,1002.7
2023-04-24T23:30:02.616Z,1002.7
2023-04-24T23:45:03.099Z,1002.8
